createdAt,value
2023-03-19T00:00:53.918Z,15.93
2023-03-19T00:03:21.944Z,19.77
2023-03-19T00:05:55.231Z,17.67
2023-03-19T00:08:23.197Z,17.80
2023-03-19T00:10:51.080Z,17.20
2023-03-19T00:13:19.212Z,21.43
2023-03-19T00:15:47.763Z,13.47
2023-03-19T00:18:16.124Z,20.27
2023-03-19T00:20:44.243Z,14.90
2023-03-19T00:23:13.239Z,18.40
2023-03-19T00:25:40.795Z,15.73
2023-03-19T00:28:08.471Z,19.70
2023-03-19T00:30:36.375Z,18.33
2023-03-19T00:33:04.274Z,17.63
2023-03-19T00:35:32.689Z,14.70
2023-03-19T00:38:00.481Z,20.20
2023-03-19T00:40:29.407Z,20.53
2023-03-19T00:42:57.083Z,13.80
2023-03-19T00:45:24.812Z,19.17
2023-03-19T00:47:52.513Z,16.47
2023-03-19T00:50:20.415Z,14.03
2023-03-19T00:52:48.104Z,18.70
2023-03-19T00:55:15.679Z,22.03
2023-03-19T00:57:45.106Z,19.50
2023-03-19T01:02:43.566Z,20.20
2023-03-19T01:05:11.100Z,19.30
2023-03-19T01:07:40.850Z,13.60
2023-03-19T01:10:09.646Z,18.30
2023-03-19T01:12:37.461Z,16.73
2023-03-19T01:15:08.695Z,18.63
2023-03-19T01:17:36.944Z,16.30
2023-03-19T01:20:04.778Z,15.90
2023-03-19T01:22:33.516Z,14.60
2023-03-19T01:25:03.254Z,18.40
2023-03-19T01:27:30.866Z,25.43
2023-03-19T01:29:58.536Z,20.53
2023-03-19T01:32:27.863Z,15.50
2023-03-19T01:34:55.472Z,12.77
2023-03-19T01:37:23.155Z,18.07
2023-03-19T01:39:50.987Z,10.07
2023-03-19T01:42:18.761Z,10.27
2023-03-19T01:44:46.528Z,13.60
2023-03-19T01:47:19.008Z,14.20
2023-03-19T01:49:54.049Z,15.27
2023-03-19T01:52:22.981Z,10.20
2023-03-19T01:54:52.495Z,10.43
2023-03-19T01:57:21.124Z,7.90
2023-03-19T01:59:52.671Z,6.53
2023-03-19T02:02:25.190Z,7.10
2023-03-19T02:04:58.950Z,6.20
2023-03-19T02:07:27.423Z,17.70
2023-03-19T02:09:55.263Z,7.90
2023-03-19T02:12:23.166Z,6.50
2023-03-19T02:14:51.007Z,9.40
2023-03-19T02:17:18.878Z,10.83
2023-03-19T02:19:51.253Z,8.60
2023-03-19T02:22:23.217Z,9.87
2023-03-19T02:24:54.573Z,7.80
2023-03-19T02:27:24.723Z,4.83
2023-03-19T02:29:52.436Z,8.33
2023-03-19T02:32:20.271Z,11.00
2023-03-19T02:34:49.863Z,11.10
2023-03-19T02:37:22.026Z,6.70
2023-03-19T02:39:55.337Z,8.00
2023-03-19T02:42:26.893Z,9.43
2023-03-19T02:44:54.494Z,13.33
2023-03-19T02:47:22.065Z,8.40
2023-03-19T02:49:49.649Z,11.90
2023-03-19T02:52:18.235Z,9.80
2023-03-19T02:54:46.592Z,9.43
2023-03-19T02:57:14.584Z,9.40
2023-03-19T02:59:43.479Z,8.07
2023-03-19T03:02:11.329Z,6.70
2023-03-19T03:04:39.276Z,7.13
2023-03-19T03:07:07.389Z,9.67
2023-03-19T03:09:35.528Z,8.80
2023-03-19T03:12:03.258Z,7.13
2023-03-19T03:14:31.043Z,11.63
2023-03-19T03:17:00.953Z,4.83
2023-03-19T03:19:28.566Z,7.00
2023-03-19T03:21:56.283Z,11.03
2023-03-19T03:24:24.213Z,10.30
2023-03-19T03:26:51.787Z,12.27
2023-03-19T03:29:19.740Z,8.90
2023-03-19T03:31:47.313Z,10.60
2023-03-19T03:34:16.298Z,9.00
2023-03-19T03:36:43.951Z,12.60
2023-03-19T03:39:11.722Z,12.50
2023-03-19T03:41:39.492Z,9.13
2023-03-19T03:44:07.067Z,8.20
2023-03-19T03:46:34.603Z,9.10
2023-03-19T03:49:02.707Z,12.37
2023-03-19T03:51:31.716Z,11.07
2023-03-19T03:53:59.305Z,9.43
2023-03-19T03:56:27.120Z,6.50
2023-03-19T03:58:54.867Z,8.20
2023-03-19T04:01:22.648Z,9.27
2023-03-19T04:03:50.461Z,8.90
2023-03-19T04:06:20.739Z,9.07
2023-03-19T04:08:49.903Z,10.23
2023-03-19T04:11:19.221Z,12.10
2023-03-19T04:13:46.903Z,10.50
2023-03-19T04:16:15.555Z,8.37
2023-03-19T04:18:43.293Z,6.83
2023-03-19T04:21:10.827Z,12.17
2023-03-19T04:23:38.659Z,7.33
2023-03-19T04:26:08.313Z,8.40
2023-03-19T04:28:37.415Z,7.30
2023-03-19T04:31:08.026Z,9.37
2023-03-19T04:33:36.585Z,7.97
2023-03-19T04:36:05.002Z,14.40
2023-03-19T04:38:32.834Z,8.43
2023-03-19T04:41:01.700Z,9.00
2023-03-19T04:43:31.029Z,9.93
2023-03-19T04:45:59.406Z,6.80
2023-03-19T04:48:27.430Z,7.03
2023-03-19T04:50:57.052Z,10.10
2023-03-19T04:53:25.581Z,8.93
2023-03-19T04:55:53.253Z,9.70
2023-03-19T04:58:21.427Z,9.40
2023-03-19T05:00:50.504Z,10.40
2023-03-19T05:03:18.355Z,7.07
2023-03-19T05:05:46.403Z,9.20
2023-03-19T05:08:14.213Z,9.50
2023-03-19T05:10:41.852Z,9.10
2023-03-19T05:13:09.470Z,13.73
2023-03-19T05:15:37.141Z,11.23
2023-03-19T05:18:06.265Z,7.73
2023-03-19T05:20:34.270Z,7.30
2023-03-19T05:23:02.782Z,7.73
2023-03-19T05:25:30.580Z,11.00
2023-03-19T05:27:58.443Z,6.60
2023-03-19T05:30:27.158Z,6.50
2023-03-19T05:32:57.074Z,6.83
2023-03-19T05:35:26.197Z,12.33
2023-03-19T05:37:53.856Z,9.97
2023-03-19T05:40:22.132Z,10.17
2023-03-19T05:42:50.064Z,7.40
2023-03-19T05:45:18.483Z,11.87
2023-03-19T05:47:49.033Z,7.60
2023-03-19T05:50:17.490Z,10.60
2023-03-19T05:52:46.535Z,6.40
2023-03-19T05:55:14.234Z,18.13
2023-03-19T05:57:42.874Z,9.60
2023-03-19T06:00:12.079Z,5.80
2023-03-19T06:02:40.021Z,11.87
2023-03-19T06:05:08.462Z,7.60
2023-03-19T06:07:36.239Z,15.73
2023-03-19T06:10:06.550Z,4.97
2023-03-19T06:12:34.150Z,7.70
2023-03-19T06:15:02.195Z,7.07
2023-03-19T06:17:29.913Z,8.97
2023-03-19T06:19:57.648Z,7.37
2023-03-19T06:22:25.341Z,6.70
2023-03-19T06:24:52.951Z,7.87
2023-03-19T06:27:21.916Z,8.20
2023-03-19T06:29:49.437Z,10.90
2023-03-19T06:32:16.945Z,7.40
2023-03-19T06:34:47.351Z,8.40
2023-03-19T06:37:14.915Z,8.40
2023-03-19T06:39:43.352Z,12.87
2023-03-19T06:42:11.169Z,4.93
2023-03-19T06:44:40.159Z,13.97
2023-03-19T06:47:08.509Z,9.40
2023-03-19T06:49:36.193Z,7.03
2023-03-19T06:52:04.078Z,10.60
2023-03-19T06:54:31.983Z,6.60
2023-03-19T06:57:00.097Z,10.77
2023-03-19T06:59:27.758Z,7.73
2023-03-19T07:01:56.630Z,8.53
2023-03-19T07:04:24.400Z,9.10
2023-03-19T07:06:51.947Z,9.13
2023-03-19T07:09:19.549Z,6.20
2023-03-19T07:11:47.179Z,7.47
2023-03-19T07:14:14.793Z,6.47
2023-03-19T07:16:42.519Z,5.60
2023-03-19T07:19:11.680Z,4.37
2023-03-19T07:21:39.264Z,6.93
2023-03-19T07:24:07.520Z,6.40
2023-03-19T07:26:35.224Z,7.30
2023-03-19T07:29:03.811Z,6.73
2023-03-19T07:31:31.473Z,8.30
2023-03-19T07:33:59.123Z,6.63
2023-03-19T07:36:28.217Z,5.70
2023-03-19T07:38:57.406Z,4.47
2023-03-19T07:41:25.056Z,9.30
2023-03-19T07:43:52.662Z,5.33
2023-03-19T07:46:20.515Z,8.23
2023-03-19T07:48:48.084Z,7.17
2023-03-19T07:51:15.624Z,8.00
2023-03-19T07:53:44.797Z,8.63
2023-03-19T07:56:13.366Z,6.60
2023-03-19T07:58:41.010Z,6.30
2023-03-19T08:01:08.991Z,6.30
2023-03-19T08:03:36.654Z,5.83
2023-03-19T08:06:04.694Z,7.30
2023-03-19T08:08:34.783Z,6.63
2023-03-19T08:11:06.630Z,4.83
2023-03-19T08:13:34.661Z,6.60
2023-03-19T08:16:02.297Z,3.87
2023-03-19T08:18:29.904Z,5.87
2023-03-19T08:20:57.513Z,7.97
2023-03-19T08:23:26.159Z,6.00
2023-03-19T08:25:54.656Z,6.07
2023-03-19T08:28:25.450Z,4.53
2023-03-19T08:30:53.212Z,5.97
2023-03-19T08:33:20.783Z,7.00
2023-03-19T08:35:50.405Z,7.60
2023-03-19T08:38:18.486Z,6.33
2023-03-19T08:40:46.167Z,5.30
2023-03-19T08:43:14.060Z,5.67
2023-03-19T08:45:42.978Z,5.50
2023-03-19T08:48:11.889Z,5.77
2023-03-19T08:50:39.436Z,9.50
2023-03-19T08:53:07.048Z,5.03
2023-03-19T08:55:34.578Z,8.37
2023-03-19T08:58:02.259Z,10.30
2023-03-19T09:00:30.038Z,8.50
2023-03-19T09:02:59.069Z,7.80
2023-03-19T09:05:29.305Z,5.87
2023-03-19T09:07:57.308Z,4.70
2023-03-19T09:10:24.909Z,4.40
2023-03-19T09:12:52.483Z,5.33
2023-03-19T09:15:20.339Z,5.33
2023-03-19T09:17:47.988Z,15.70
2023-03-19T09:20:17.303Z,20.77
2023-03-19T09:22:45.087Z,4.97
2023-03-19T09:25:13.214Z,4.47
2023-03-19T09:27:40.855Z,3.97
2023-03-19T09:30:10.477Z,3.90
2023-03-19T09:32:39.462Z,4.67
2023-03-19T09:35:08.627Z,8.83
2023-03-19T09:37:37.735Z,4.13
2023-03-19T09:40:08.106Z,5.87
2023-03-19T09:42:53.571Z,4.50
2023-03-19T09:45:21.536Z,4.00
2023-03-19T09:47:55.751Z,4.40
2023-03-19T09:50:28.922Z,7.30
2023-03-19T09:53:06.470Z,4.30
2023-03-19T09:55:42.373Z,5.10
2023-03-19T09:58:15.823Z,5.10
2023-03-19T10:00:45.376Z,5.30
2023-03-19T10:03:28.976Z,6.90
2023-03-19T10:06:06.762Z,4.87
2023-03-19T10:08:50.419Z,3.90
2023-03-19T10:11:34.231Z,5.00
2023-03-19T10:14:17.004Z,4.03
2023-03-19T10:16:50.076Z,5.43
2023-03-19T10:19:23.083Z,4.10
2023-03-19T10:21:55.585Z,4.17
2023-03-19T10:24:31.250Z,2.60
2023-03-19T10:27:02.926Z,4.20
2023-03-19T10:29:30.585Z,3.10
2023-03-19T10:32:10.283Z,5.73
2023-03-19T10:34:41.983Z,3.00
2023-03-19T10:37:17.167Z,4.33
2023-03-19T10:39:47.259Z,2.40
2023-03-19T10:42:27.305Z,2.60
2023-03-19T10:45:01.450Z,6.00
2023-03-19T10:47:29.150Z,2.53
2023-03-19T10:49:57.577Z,2.30
2023-03-19T10:52:29.397Z,1.50
2023-03-19T10:55:03.751Z,1.63
2023-03-19T10:57:32.061Z,3.20
2023-03-19T11:00:05.352Z,2.37
2023-03-19T11:02:33.545Z,3.27
2023-03-19T11:05:17.032Z,4.50
2023-03-19T11:07:44.914Z,3.63
2023-03-19T11:10:17.078Z,2.00
2023-03-19T11:12:49.701Z,3.57
2023-03-19T11:15:21.801Z,6.13
2023-03-19T11:17:56.561Z,2.30
2023-03-19T11:20:30.046Z,4.27
2023-03-19T11:23:02.614Z,2.07
2023-03-19T11:25:35.686Z,4.70
2023-03-19T11:28:10.176Z,9.23
2023-03-19T11:30:44.482Z,8.53
2023-03-19T11:33:36.325Z,3.27
2023-03-19T11:36:13.057Z,3.50
2023-03-19T11:38:51.099Z,3.10
2023-03-19T11:41:30.854Z,3.90
2023-03-19T11:44:04.330Z,3.63
2023-03-19T11:46:39.691Z,2.77
2023-03-19T11:49:41.324Z,2.30
2023-03-19T11:52:17.737Z,2.27
2023-03-19T11:54:57.411Z,3.70
2023-03-19T11:57:33.462Z,3.10
2023-03-19T12:00:09.809Z,3.23
2023-03-19T12:03:18.347Z,3.20
2023-03-19T12:05:56.060Z,2.87
2023-03-19T12:08:32.450Z,6.80
2023-03-19T12:11:11.165Z,1.60
2023-03-19T12:13:52.914Z,2.30
2023-03-19T12:16:31.322Z,1.80
2023-03-19T12:19:11.964Z,2.00
2023-03-19T12:21:54.905Z,2.00
2023-03-19T12:24:33.659Z,2.30
2023-03-19T12:27:19.890Z,2.43
2023-03-19T12:29:58.090Z,3.93
2023-03-19T12:32:39.875Z,4.30
2023-03-19T12:35:13.799Z,3.83
2023-03-19T12:37:47.707Z,3.07
2023-03-19T12:40:28.293Z,8.00
2023-03-19T12:42:59.147Z,3.27
2023-03-19T12:45:33.230Z,8.03
2023-03-19T12:48:07.129Z,2.50
2023-03-19T12:50:38.197Z,2.10
2023-03-19T12:53:11.926Z,3.30
2023-03-19T12:55:43.824Z,4.10
2023-03-19T12:58:20.760Z,3.30
2023-03-19T13:00:59.638Z,4.30
2023-03-19T13:03:35.065Z,5.37
2023-03-19T13:06:08.496Z,4.17
2023-03-19T13:08:40.731Z,8.63
2023-03-19T13:11:14.520Z,4.07
2023-03-19T13:13:49.444Z,4.87
2023-03-19T13:16:31.836Z,4.20
2023-03-19T13:19:08.728Z,4.13
2023-03-19T13:21:38.757Z,5.87
2023-03-19T13:24:17.244Z,4.57
2023-03-19T13:26:46.244Z,3.30
2023-03-19T13:29:19.922Z,4.70
2023-03-19T13:31:49.733Z,4.03
2023-03-19T13:34:26.026Z,2.30
2023-03-19T13:37:01.582Z,3.77
2023-03-19T13:39:32.635Z,7.60
2023-03-19T13:42:37.231Z,2.73
2023-03-19T13:45:29.641Z,3.20
2023-03-19T13:48:24.420Z,3.10
2023-03-19T13:50:57.042Z,2.10
2023-03-19T13:53:38.221Z,2.47
2023-03-19T13:56:15.935Z,1.87
2023-03-19T13:59:18.888Z,2.10
2023-03-19T14:01:47.292Z,6.73
2023-03-19T14:04:25.269Z,3.20
2023-03-19T14:06:57.151Z,4.43
2023-03-19T14:09:36.455Z,3.30
2023-03-19T14:12:22.771Z,4.17
2023-03-19T14:14:53.252Z,4.30
2023-03-19T14:17:23.505Z,3.20
2023-03-19T14:19:53.155Z,5.13
2023-03-19T14:22:38.154Z,2.40
2023-03-19T14:25:17.898Z,2.33
2023-03-19T14:27:48.951Z,3.90
2023-03-19T14:30:30.371Z,1.60
2023-03-19T14:33:02.355Z,1.87
2023-03-19T14:35:33.309Z,1.73
2023-03-19T14:38:03.003Z,1.50
2023-03-19T14:40:39.958Z,1.90
2023-03-19T14:43:16.439Z,1.57
2023-03-19T14:45:55.705Z,1.63
2023-03-19T14:48:51.698Z,1.43
2023-03-19T14:51:34.824Z,1.17
2023-03-19T14:54:13.454Z,1.60
2023-03-19T14:56:41.490Z,2.00
2023-03-19T14:59:15.199Z,1.20
2023-03-19T15:01:50.558Z,3.13
2023-03-19T15:04:21.525Z,1.90
2023-03-19T15:06:54.111Z,2.07
2023-03-19T15:09:29.584Z,3.40
2023-03-19T15:12:28.094Z,2.93
2023-03-19T15:15:12.666Z,2.00
2023-03-19T15:17:40.203Z,1.33
2023-03-19T15:20:18.339Z,2.90
2023-03-19T15:22:47.888Z,2.23
2023-03-19T15:25:17.078Z,1.57
2023-03-19T15:27:44.866Z,1.97
2023-03-19T15:30:24.776Z,3.17
2023-03-19T15:33:07.711Z,2.27
2023-03-19T15:35:37.702Z,2.30
2023-03-19T15:38:10.048Z,3.80
2023-03-19T15:40:41.996Z,1.33
2023-03-19T15:43:12.683Z,1.47
2023-03-19T15:45:43.962Z,2.53
2023-03-19T15:48:19.487Z,1.60
2023-03-19T15:50:49.268Z,3.30
2023-03-19T15:53:19.430Z,1.93
2023-03-19T15:55:50.321Z,3.77
2023-03-19T15:58:22.433Z,1.70
2023-03-19T16:00:52.695Z,1.30
2023-03-19T16:03:23.694Z,1.53
2023-03-19T16:06:02.657Z,4.73
2023-03-19T16:08:31.808Z,2.87
2023-03-19T16:11:17.136Z,2.03
2023-03-19T16:13:56.895Z,3.53
2023-03-19T16:16:26.310Z,1.47
2023-03-19T16:18:55.767Z,1.60
2023-03-19T16:21:28.922Z,1.57
2023-03-19T16:24:00.374Z,2.17
2023-03-19T16:26:37.140Z,3.50
2023-03-19T16:29:11.115Z,2.53
2023-03-19T16:31:45.905Z,2.57
2023-03-19T16:34:27.439Z,1.30
2023-03-19T16:36:55.736Z,2.20
2023-03-19T16:39:27.393Z,1.40
2023-03-19T16:42:29.488Z,1.43
2023-03-19T16:44:58.007Z,3.20
2023-03-19T16:47:25.741Z,4.23
2023-03-19T16:49:53.596Z,3.47
2023-03-19T16:52:24.030Z,1.60
2023-03-19T16:54:52.823Z,1.90
2023-03-19T16:57:22.398Z,1.70
2023-03-19T16:59:50.062Z,1.63
2023-03-19T17:02:18.869Z,1.50
2023-03-19T17:04:47.491Z,3.20
2023-03-19T17:07:15.279Z,1.20
2023-03-19T17:09:42.945Z,1.20
2023-03-19T17:12:16.198Z,1.37
2023-03-19T17:14:46.931Z,1.30
2023-03-19T17:17:19.385Z,1.53
2023-03-19T17:19:48.111Z,2.00
2023-03-19T17:22:16.043Z,1.27
2023-03-19T17:24:44.132Z,1.27
2023-03-19T17:27:11.788Z,1.77
2023-03-19T17:29:39.499Z,3.30
2023-03-19T17:32:25.335Z,1.63
2023-03-19T17:34:53.077Z,1.93
2023-03-19T17:37:20.784Z,1.93
2023-03-19T17:39:48.524Z,2.07
2023-03-19T17:42:20.981Z,1.73
2023-03-19T17:44:48.696Z,2.17
2023-03-19T17:47:19.056Z,1.70
2023-03-19T17:49:48.571Z,3.33
2023-03-19T17:52:17.996Z,2.57
2023-03-19T17:54:46.233Z,3.97
2023-03-19T17:57:15.683Z,2.20
2023-03-19T17:59:43.390Z,2.60
2023-03-19T18:02:26.171Z,2.80
2023-03-19T18:04:53.972Z,1.87
2023-03-19T18:07:21.713Z,1.77
2023-03-19T18:09:49.312Z,2.17
2023-03-19T18:12:16.969Z,3.13
2023-03-19T18:14:44.645Z,2.03
2023-03-19T18:17:16.456Z,2.30
2023-03-19T18:19:46.665Z,3.57
2023-03-19T18:22:16.458Z,4.03
2023-03-19T18:24:45.957Z,4.37
2023-03-19T18:27:13.746Z,5.40
2023-03-19T18:29:41.576Z,10.40
2023-03-19T18:32:18.781Z,13.37
2023-03-19T18:34:49.903Z,24.77
2023-03-19T18:37:19.222Z,22.30
2023-03-19T18:39:46.890Z,16.17
2023-03-19T18:42:15.354Z,14.70
2023-03-19T18:44:43.299Z,12.20
2023-03-19T18:47:14.788Z,14.00
2023-03-19T18:49:42.874Z,8.33
2023-03-19T18:52:18.580Z,17.63
2023-03-19T18:54:48.196Z,7.00
2023-03-19T18:57:16.933Z,5.00
2023-03-19T18:59:45.021Z,8.03
2023-03-19T19:02:31.217Z,7.10
2023-03-19T19:04:59.192Z,5.10
2023-03-19T19:07:28.306Z,8.23
2023-03-19T19:09:55.977Z,6.00
2023-03-19T19:12:23.643Z,6.43
2023-03-19T19:14:51.754Z,6.23
2023-03-19T19:17:31.456Z,5.67
2023-03-19T19:20:01.423Z,6.10
2023-03-19T19:22:38.112Z,4.40
2023-03-19T19:25:06.384Z,9.40
2023-03-19T19:27:34.401Z,7.47
2023-03-19T19:30:03.679Z,5.70
2023-03-19T19:32:35.228Z,6.77
2023-03-19T19:35:03.710Z,8.90
2023-03-19T19:37:32.703Z,3.17
2023-03-19T19:40:00.538Z,4.77
2023-03-19T19:42:29.239Z,5.63
2023-03-19T19:44:58.792Z,6.07
2023-03-19T19:47:26.390Z,4.10
2023-03-19T19:49:54.215Z,3.80
2023-03-19T19:52:21.918Z,3.90
2023-03-19T19:54:52.011Z,4.27
2023-03-19T19:57:22.479Z,4.40
2023-03-19T19:59:51.636Z,3.40
2023-03-19T20:02:23.316Z,3.27
2023-03-19T20:04:51.303Z,5.87
2023-03-19T20:07:19.092Z,5.23
2023-03-19T20:09:46.776Z,2.97
2023-03-19T20:12:20.453Z,3.97
2023-03-19T20:14:49.843Z,2.73
2023-03-19T20:17:18.670Z,2.50
2023-03-19T20:19:46.307Z,3.00
2023-03-19T20:22:14.025Z,6.50
2023-03-19T20:24:41.894Z,3.00
2023-03-19T20:27:21.239Z,4.13
2023-03-19T20:29:50.538Z,2.93
2023-03-19T20:32:28.069Z,3.53
2023-03-19T20:34:55.892Z,2.80
2023-03-19T20:37:23.824Z,2.97
2023-03-19T20:39:51.442Z,2.67
2023-03-19T20:42:21.728Z,4.57
2023-03-19T20:44:49.510Z,2.70
2023-03-19T20:47:19.605Z,7.87
2023-03-19T20:49:48.352Z,5.70
2023-03-19T20:52:16.431Z,6.03
2023-03-19T20:54:44.671Z,3.70
2023-03-19T20:57:14.655Z,4.87
2023-03-19T20:59:46.779Z,4.70
2023-03-19T21:02:27.465Z,7.03
2023-03-19T21:04:55.535Z,4.07
2023-03-19T21:07:29.381Z,3.03
2023-03-19T21:10:01.534Z,3.53
2023-03-19T21:12:36.108Z,4.03
2023-03-19T21:15:07.777Z,6.50
2023-03-19T21:17:36.354Z,8.43
2023-03-19T21:20:04.412Z,6.37
2023-03-19T21:22:33.516Z,5.80
2023-03-19T21:25:04.924Z,3.80
2023-03-19T21:27:35.742Z,4.50
2023-03-19T21:30:07.823Z,3.37
2023-03-19T21:32:35.797Z,5.20
2023-03-19T21:35:03.721Z,5.90
2023-03-19T21:37:33.521Z,3.73
2023-03-19T21:40:02.062Z,4.87
2023-03-19T21:42:31.716Z,5.30
2023-03-19T21:45:00.506Z,3.87
2023-03-19T21:47:29.537Z,9.00
2023-03-19T21:50:00.193Z,3.83
2023-03-19T21:52:28.067Z,7.10
2023-03-19T21:54:55.922Z,5.33
2023-03-19T21:57:24.010Z,4.83
2023-03-19T21:59:51.594Z,3.63
2023-03-19T22:02:41.326Z,4.70
2023-03-19T22:05:25.282Z,3.30
2023-03-19T22:07:54.751Z,3.90
2023-03-19T22:10:25.446Z,4.17
2023-03-19T22:12:53.612Z,4.60
2023-03-19T22:15:26.886Z,8.80
2023-03-19T22:17:56.107Z,4.00
2023-03-19T22:20:25.605Z,4.03
2023-03-19T22:22:53.661Z,3.60
2023-03-19T22:25:22.954Z,6.33
2023-03-19T22:27:51.674Z,4.03
2023-03-19T22:30:30.136Z,3.30
2023-03-19T22:32:59.940Z,5.03
2023-03-19T22:35:28.423Z,4.07
2023-03-19T22:37:56.168Z,3.97
2023-03-19T22:40:23.773Z,4.40
2023-03-19T22:42:51.379Z,3.63
2023-03-19T22:45:25.354Z,5.03
2023-03-19T22:47:53.806Z,3.50
2023-03-19T22:50:26.021Z,4.20
2023-03-19T22:52:54.005Z,3.93
2023-03-19T22:55:22.933Z,4.13
2023-03-19T22:57:51.132Z,5.80
2023-03-19T23:00:21.199Z,3.50
2023-03-19T23:02:55.928Z,6.90
2023-03-19T23:05:33.298Z,4.90
2023-03-19T23:08:01.193Z,4.00
2023-03-19T23:10:30.688Z,8.97
2023-03-19T23:12:58.283Z,4.30
2023-03-19T23:15:28.449Z,5.07
2023-03-19T23:17:59.685Z,4.10
2023-03-19T23:20:33.685Z,5.70
2023-03-19T23:23:02.211Z,4.90
2023-03-19T23:25:30.702Z,4.50
2023-03-19T23:28:01.703Z,4.73
2023-03-19T23:30:31.790Z,4.53
2023-03-19T23:33:02.649Z,4.43
2023-03-19T23:35:32.305Z,4.67
2023-03-19T23:38:01.684Z,4.00
2023-03-19T23:40:33.062Z,4.93
2023-03-19T23:43:02.425Z,5.07
2023-03-19T23:45:37.283Z,5.13
2023-03-19T23:48:06.808Z,6.83
2023-03-19T23:50:36.598Z,4.40
2023-03-19T23:53:04.529Z,4.30
2023-03-19T23:55:34.177Z,4.50
2023-03-19T23:58:02.901Z,5.43
